Time;durP1;ratioP1;P1;durP2;ratioP2;P2;SDS_P1;SDS_P2;PMS_P1;PMS_P2;Temp;Humidity;BMP_temperature;BMP_pressure;BME280_temperature;BME280_humidity;BME280_pressure;Samples;Min_cycle;Max_cycle;Signal;HPM_P1;HPM_P2
2022/08/18 00:01:12;;;;;;;13.20;11.90;;;;;;;23.53;66.24;100056.45;108908;1268;22896;-74
2022/08/18 00:03:43;;;;;;;13.60;12.20;;;;;;;23.51;66.32;100055.84;108146;1269;25395;-75
2022/08/18 00:06:27;;;;;;;13.30;11.90;;;;;;;23.48;66.50;100057.62;106153;1274;22533;-73
2022/08/18 00:08:57;;;;;;;16.00;12.90;;;;;;;23.47;66.47;100055.95;106158;1274;22510;-77
2022/08/18 00:11:25;;;;;;;14.50;12.60;;;;;;;23.44;66.29;100056.27;106094;1274;22701;-76
2022/08/18 00:13:52;;;;;;;16.00;12.20;;;;;;;23.43;66.32;100051.37;105989;1274;22643;-79
2022/08/18 00:16:19;;;;;;;13.20;11.90;;;;;;;23.38;66.58;100049.84;105964;1274;22700;-75
2022/08/18 00:18:46;;;;;;;13.00;11.50;;;;;;;23.37;66.39;100057.63;106062;1274;22608;-75
2022/08/18 00:21:12;;;;;;;14.30;12.30;;;;;;;23.35;66.48;100063.32;106066;1274;22693;-78
2022/08/18 00:23:39;;;;;;;14.20;12.20;;;;;;;23.33;66.31;100068.39;106206;1274;22749;-76
2022/08/18 00:26:06;;;;;;;13.20;12.00;;;;;;;23.30;66.82;100074.81;106724;1269;22882;-77
2022/08/18 00:28:33;;;;;;;16.60;13.00;;;;;;;23.27;66.85;100076.50;106756;1268;25309;-75
2022/08/18 00:31:00;;;;;;;18.20;12.50;;;;;;;23.24;67.03;100082.92;106390;1271;25402;-76
2022/08/18 00:33:27;;;;;;;14.50;12.70;;;;;;;23.22;66.88;100086.31;106451;1271;25209;-75
2022/08/18 00:35:53;;;;;;;14.60;12.20;;;;;;;23.19;66.89;100096.92;106260;1271;22615;-77
2022/08/18 00:38:21;;;;;;;13.70;12.30;;;;;;;23.16;67.07;100096.42;106203;1271;22512;-87
2022/08/18 00:40:54;;;;;;;13.50;12.30;;;;;;;23.13;67.26;100103.59;106358;1271;25300;-75
2022/08/18 00:43:46;;;;;;;13.10;11.80;;;;;;;23.10;67.53;100109.23;106123;1275;22582;-81
2022/08/18 00:46:29;;;;;;;14.70;13.10;;;;;;;23.05;67.56;100113.48;105936;1276;22540;-77
2022/08/18 00:48:56;;;;;;;13.50;12.30;;;;;;;23.02;67.78;100113.33;105963;1275;22738;-79
2022/08/18 00:51:42;;;;;;;15.80;12.50;;;;;;;22.96;67.63;100106.85;105975;1274;23523;-75
2022/08/18 00:54:14;;;;;;;14.10;12.70;;;;;;;22.96;67.81;100113.50;105739;1274;24304;-77
2022/08/18 00:56:45;;;;;;;14.40;11.70;;;;;;;22.95;68.00;100118.64;105981;1275;22694;-75
2022/08/18 00:59:54;;;;;;;20.10;12.90;;;;;;;22.90;67.94;100109.05;105989;1274;22612;-74
2022/08/18 01:02:34;;;;;;;13.90;12.50;;;;;;;22.92;67.95;100111.79;106244;1271;24234;-76
2022/08/18 01:05:09;;;;;;;15.70;12.70;;;;;;;22.92;68.03;100113.27;106280;1271;24341;-76
2022/08/18 01:07:46;;;;;;;14.40;12.80;;;;;;;22.91;68.27;100108.80;106311;1271;22882;-77
2022/08/18 01:10:16;;;;;;;13.90;12.60;;;;;;;22.90;68.17;100114.11;106241;1271;24306;-75
2022/08/18 01:12:46;;;;;;;13.50;12.20;;;;;;;22.88;68.27;100121.05;106080;1271;22623;-75
2022/08/18 01:15:18;;;;;;;13.10;11.80;;;;;;;22.87;68.55;100125.62;106347;1271;25362;-75
2022/08/18 01:24:06;;;;;;;14.10;12.70;;;;;;;22.83;68.66;100139.52;106274;1271;24553;-75
2022/08/18 01:26:48;;;;;;;15.90;12.50;;;;;;;22.80;68.83;100137.36;106339;1271;24233;-76
2022/08/18 01:29:18;;;;;;;14.10;12.60;;;;;;;22.75;68.87;100135.13;106187;1271;22566;-77
2022/08/18 01:31:55;;;;;;;14.50;13.00;;;;;;;22.73;68.78;100130.09;106339;1271;25320;-75
2022/08/18 01:34:24;;;;;;;12.90;11.60;;;;;;;22.69;69.00;100134.10;106304;1271;22528;-76
2022/08/18 01:36:53;;;;;;;17.70;12.50;;;;;;;22.64;68.88;100141.04;106373;1271;25895;-77
2022/08/18 01:39:21;;;;;;;14.00;12.60;;;;;;;22.63;69.06;100137.88;106419;1271;22525;-76
2022/08/18 01:42:10;;;;;;;13.30;12.00;;;;;;;22.61;69.27;100131.16;106357;1271;22541;-73
2022/08/18 01:44:40;;;;;;;14.20;12.80;;;;;;;22.60;69.25;100129.26;106446;1271;22560;-74
2022/08/18 01:47:09;;;;;;;13.90;12.60;;;;;;;22.57;69.45;100135.89;106348;1271;25407;-75
2022/08/18 01:49:37;;;;;;;14.80;12.60;;;;;;;22.58;69.36;100141.60;106328;1271;25278;-75
2022/08/18 01:52:06;;;;;;;13.20;11.50;;;;;;;22.57;69.39;100144.52;106167;1271;24221;-76
2022/08/18 01:54:33;;;;;;;13.30;11.90;;;;;;;22.56;69.29;100149.05;106236;1271;22554;-75
2022/08/18 01:57:01;;;;;;;17.60;12.00;;;;;;;22.54;69.43;100148.66;106276;1271;22525;-74
2022/08/18 01:59:28;;;;;;;15.10;12.40;;;;;;;22.50;69.54;100147.65;106304;1269;22540;-74
2022/08/18 02:01:55;;;;;;;13.50;12.10;;;;;;;22.49;69.63;100145.21;106434;1271;22675;-75
2022/08/18 02:04:32;;;;;;;17.00;13.80;;;;;;;22.45;69.75;100137.71;106579;1271;22535;-74
2022/08/18 02:07:06;;;;;;;14.70;13.10;;;;;;;22.42;69.66;100134.17;106498;1271;25191;-75
2022/08/18 02:09:34;;;;;;;13.40;12.20;;;;;;;22.38;69.94;100131.36;106545;1271;25270;-75
2022/08/18 02:12:01;;;;;;;17.00;12.40;;;;;;;22.37;70.15;100130.83;106520;1271;25467;-75
2022/08/18 02:14:28;;;;;;;14.30;12.80;;;;;;;22.37;70.23;100133.38;106497;1271;22611;-75
2022/08/18 02:17:00;;;;;;;13.60;12.30;;;;;;;22.35;70.27;100134.60;106470;1271;22549;-77
2022/08/18 02:19:44;;;;;;;14.20;12.80;;;;;;;22.32;70.44;100140.34;106420;1271;22547;-76
2022/08/18 02:22:14;;;;;;;16.10;13.40;;;;;;;22.27;70.57;100142.80;106332;1271;22853;-77
2022/08/18 02:24:42;;;;;;;13.10;11.90;;;;;;;22.21;70.60;100143.31;106530;1271;24415;-78
2022/08/18 02:27:10;;;;;;;13.20;12.00;;;;;;;22.18;70.60;100147.61;106497;1271;22838;-73
2022/08/18 02:29:37;;;;;;;14.30;12.30;;;;;;;22.17;70.89;100145.04;106541;1270;22623;-75
2022/08/18 02:32:05;;;;;;;14.10;12.70;;;;;;;22.16;70.96;100145.08;106521;1271;22547;-72
2022/08/18 02:34:33;;;;;;;13.00;11.80;;;;;;;22.16;71.10;100144.04;106440;1271;22577;-78
2022/08/18 02:37:01;;;;;;;16.30;13.00;;;;;;;22.12;71.10;100140.64;106486;1271;22758;-79
2022/08/18 02:39:29;;;;;;;13.20;11.40;;;;;;;22.12;71.29;100145.17;106431;1271;25388;-76
2022/08/18 02:41:56;;;;;;;13.30;12.10;;;;;;;22.10;71.40;100148.86;106365;1271;24257;-76
2022/08/18 02:44:23;;;;;;;17.90;13.30;;;;;;;22.12;71.66;100146.55;106385;1271;22690;-77
2022/08/18 02:46:53;;;;;;;17.40;12.60;;;;;;;22.13;71.46;100146.11;106601;1271;24269;-79
2022/08/18 02:49:20;;;;;;;14.30;13.00;;;;;;;22.10;71.46;100148.83;106666;1271;22527;-73
2022/08/18 02:51:48;;;;;;;15.10;13.60;;;;;;;22.08;71.54;100148.95;107177;1271;22688;-76
2022/08/18 02:54:16;;;;;;;15.00;13.10;;;;;;;22.07;71.64;100149.72;106690;1268;23182;-80
2022/08/18 02:56:44;;;;;;;13.90;12.50;;;;;;;22.08;71.65;100147.36;106922;1271;24224;-72
2022/08/18 02:59:16;;;;;;;16.10;12.20;;;;;;;22.08;71.65;100146.46;107529;1271;22559;-76
2022/08/18 03:01:46;;;;;;;15.10;13.50;;;;;;;22.08;71.75;100150.05;106717;1271;22538;-76
2022/08/18 03:04:18;;;;;;;14.80;13.20;;;;;;;22.07;71.78;100147.23;106421;1271;22528;-77
2022/08/18 03:06:52;;;;;;;14.60;13.10;;;;;;;22.05;71.72;100143.80;106287;1271;22548;-78
2022/08/18 03:09:19;;;;;;;19.10;13.50;;;;;;;21.99;71.94;100138.39;106194;1271;24815;-76
2022/08/18 03:11:47;;;;;;;15.00;12.70;;;;;;;22.01;71.89;100142.76;106377;1268;25385;-74
2022/08/18 03:14:15;;;;;;;15.00;13.10;;;;;;;22.00;72.04;100143.18;106311;1271;25235;-75
2022/08/18 03:16:45;;;;;;;23.00;13.70;;;;;;;21.99;72.09;100142.53;106274;1271;22798;-76
2022/08/18 03:19:22;;;;;;;15.20;13.30;;;;;;;21.98;71.98;100146.17;106333;1271;22587;-75
2022/08/18 03:21:49;;;;;;;18.50;13.20;;;;;;;21.95;72.28;100144.87;106497;1269;22688;-73
2022/08/18 03:24:17;;;;;;;16.30;13.50;;;;;;;21.94;72.20;100142.45;106356;1271;22544;-76
2022/08/18 03:26:51;;;;;;;16.50;12.90;;;;;;;21.92;72.32;100137.73;106469;1271;22547;-75
2022/08/18 03:29:19;;;;;;;15.60;13.60;;;;;;;21.88;72.26;100138.13;106336;1271;24259;-75
2022/08/18 03:31:47;;;;;;;21.60;13.70;;;;;;;21.90;72.36;100145.55;106094;1271;24456;-74
2022/08/18 03:34:18;;;;;;;18.80;14.20;;;;;;;21.89;72.28;100148.11;106450;1271;22632;-75
2022/08/18 03:36:48;;;;;;;18.30;13.30;;;;;;;21.88;72.53;100149.25;106502;1271;25228;-77
2022/08/18 03:39:17;;;;;;;15.40;13.50;;;;;;;21.87;72.56;100151.63;106331;1271;22906;-76
2022/08/18 03:41:45;;;;;;;24.40;14.00;;;;;;;21.87;72.42;100154.54;106194;1271;24211;-77
2022/08/18 03:44:30;;;;;;;25.60;14.00;;;;;;;21.86;72.56;100154.96;106264;1271;22537;-78
2022/08/18 03:46:57;;;;;;;18.70;14.70;;;;;;;21.82;72.37;100160.59;106296;1271;22531;-76
2022/08/18 03:49:25;;;;;;;16.80;14.60;;;;;;;21.82;72.64;100161.30;106246;1271;25302;-75
2022/08/18 03:51:53;;;;;;;18.90;15.00;;;;;;;21.82;72.67;100164.88;106274;1271;22671;-76
2022/08/18 03:54:20;;;;;;;18.20;14.40;;;;;;;21.82;72.56;100162.55;106203;1271;22525;-76
2022/08/18 03:56:48;;;;;;;22.20;14.00;;;;;;;21.83;72.65;100158.92;106418;1271;23906;-75
2022/08/18 03:59:19;;;;;;;21.20;14.80;;;;;;;21.84;72.68;100156.35;106299;1271;25251;-72
2022/08/18 04:01:49;;;;;;;18.30;15.90;;;;;;;21.85;72.58;100156.95;106405;1271;22521;-77
2022/08/18 04:04:20;;;;;;;17.00;14.90;;;;;;;21.85;72.45;100154.61;106485;1271;22685;-77
2022/08/18 04:06:57;;;;;;;18.30;16.10;;;;;;;21.84;72.38;100159.34;106281;1271;22546;-77
2022/08/18 04:09:26;;;;;;;19.80;15.30;;;;;;;21.84;72.51;100155.29;106340;1271;22521;-79
2022/08/18 04:11:55;;;;;;;17.00;14.90;;;;;;;21.85;72.58;100153.77;106421;1270;25373;-73
2022/08/18 04:14:24;;;;;;;16.80;15.10;;;;;;;21.87;72.45;100150.58;106468;1271;22547;-78
2022/08/18 04:16:51;;;;;;;19.10;15.50;;;;;;;21.89;72.52;100150.83;106425;1271;22583;-74
2022/08/18 04:19:18;;;;;;;18.80;16.40;;;;;;;21.91;72.48;100147.48;106423;1271;22620;-78
2022/08/18 04:21:56;;;;;;;19.50;16.20;;;;;;;21.93;72.32;100149.72;106666;1271;25325;-76
2022/08/18 04:24:25;;;;;;;19.80;15.80;;;;;;;21.93;72.61;100151.45;106312;1271;22525;-76
2022/08/18 04:26:58;;;;;;;20.50;15.00;;;;;;;21.95;72.42;100159.25;106479;1271;25250;-78
2022/08/18 04:29:25;;;;;;;18.40;15.50;;;;;;;21.95;72.14;100160.14;106321;1271;22528;-75
2022/08/18 04:31:52;;;;;;;17.20;14.80;;;;;;;21.97;72.27;100155.35;106426;1271;26624;-75
2022/08/18 04:34:21;;;;;;;18.30;15.60;;;;;;;21.98;72.11;100153.86;106484;1271;22825;-76
2022/08/18 04:36:53;;;;;;;17.90;16.10;;;;;;;21.98;72.19;100154.23;106392;1271;22522;-78
2022/08/18 04:39:21;;;;;;;17.00;15.30;;;;;;;21.98;72.20;100158.19;106428;1271;22709;-77
2022/08/18 04:41:50;;;;;;;18.10;15.40;;;;;;;21.95;72.17;100160.15;106462;1271;22527;-75
2022/08/18 04:44:17;;;;;;;18.00;15.00;;;;;;;21.98;72.25;100169.84;106333;1271;25322;-77
2022/08/18 04:46:53;;;;;;;17.40;13.80;;;;;;;21.99;72.34;100172.11;106360;1271;23183;-74
2022/08/18 04:49:24;;;;;;;20.30;16.00;;;;;;;22.00;72.32;100169.00;106315;1271;22685;-75
2022/08/18 04:55:00;;;;;;;19.60;16.10;;;;;;;22.06;72.12;100165.94;106376;1271;25413;-75
2022/08/18 04:57:27;;;;;;;20.40;15.80;;;;;;;22.06;71.96;100166.52;106381;1271;22527;-77
2022/08/18 04:59:59;;;;;;;21.70;14.60;;;;;;;22.07;72.02;100172.33;106264;1271;25439;-77
2022/08/18 05:02:26;;;;;;;19.60;15.50;;;;;;;22.08;71.79;100173.71;106138;1271;22665;-77
2022/08/18 05:04:53;;;;;;;21.40;15.50;;;;;;;22.10;71.79;100173.40;106473;1270;25420;-74
2022/08/18 05:07:21;;;;;;;20.40;16.80;;;;;;;22.13;71.79;100172.34;106297;1271;24409;-76
2022/08/18 05:09:49;;;;;;;17.40;15.20;;;;;;;22.14;71.58;100172.42;106349;1271;24272;-77
2022/08/18 05:12:16;;;;;;;22.90;16.00;;;;;;;22.17;71.54;100172.63;106359;1271;22726;-75
2022/08/18 05:14:46;;;;;;;17.10;15.10;;;;;;;22.13;71.42;100162.11;106473;1271;24338;-75
2022/08/18 05:17:15;;;;;;;17.30;15.30;;;;;;;22.19;71.43;100172.86;106463;1271;25363;-77
2022/08/18 05:19:45;;;;;;;17.60;15.80;;;;;;;22.22;71.41;100169.97;106371;1271;23645;-76
2022/08/18 05:22:16;;;;;;;17.40;15.80;;;;;;;22.27;71.44;100172.36;106346;1271;22603;-78
2022/08/18 05:24:45;;;;;;;17.80;15.90;;;;;;;22.31;71.29;100177.87;106743;1271;25293;-74
2022/08/18 05:27:13;;;;;;;18.50;16.30;;;;;;;22.36;71.29;100180.27;107127;1271;24371;-74
2022/08/18 05:29:40;;;;;;;22.20;16.70;;;;;;;22.40;71.10;100177.71;107108;1271;24167;-75
2022/08/18 05:32:13;;;;;;;25.50;16.30;;;;;;;22.43;70.96;100176.98;107238;1271;22478;-76
2022/08/18 05:35:07;;;;;;;19.30;15.40;;;;;;;22.44;71.21;100172.27;106663;1271;23932;-76
2022/08/18 05:38:04;;;;;;;17.90;15.20;;;;;;;22.48;70.95;100176.12;107508;1271;24256;-73
2022/08/18 05:40:33;;;;;;;23.80;16.40;;;;;;;22.57;70.98;100178.79;108491;1271;22607;-75
2022/08/18 05:43:02;;;;;;;18.00;16.00;;;;;;;22.64;70.79;100181.25;108301;1271;22489;-74
2022/08/18 05:45:29;;;;;;;18.10;15.00;;;;;;;22.70;70.63;100176.60;108449;1271;25364;-75
2022/08/18 05:47:58;;;;;;;20.50;16.20;;;;;;;22.73;70.66;100177.08;108043;1271;22821;-77
2022/08/18 05:50:30;;;;;;;21.00;16.40;;;;;;;22.77;70.37;100180.98;107198;1271;25264;-78
2022/08/18 05:53:12;;;;;;;17.10;14.80;;;;;;;22.80;70.22;100180.07;106512;1271;25373;-76
2022/08/18 05:58:54;;;;;;;19.70;16.10;;;;;;;22.94;70.23;100178.07;107393;1274;24396;-75
2022/08/18 06:01:29;;;;;;;19.40;15.80;;;;;;;23.00;70.08;100174.51;106979;1274;23319;-74
2022/08/18 06:04:24;;;;;;;18.70;15.80;;;;;;;23.05;70.00;100175.98;106926;1274;25308;-72
2022/08/18 06:06:53;;;;;;;21.90;16.40;;;;;;;23.10;69.83;100179.08;106230;1274;25679;-76
2022/08/18 06:09:28;;;;;;;17.60;15.40;;;;;;;23.12;69.75;100178.55;106294;1274;26514;-76
2022/08/18 06:12:18;;;;;;;19.40;15.30;;;;;;;23.18;69.63;100179.27;106161;1274;22742;-78
2022/08/18 06:14:45;;;;;;;20.10;15.80;;;;;;;23.23;69.56;100178.90;106346;1271;22965;-74
2022/08/18 06:17:36;;;;;;;18.20;15.70;;;;;;;23.30;69.45;100177.56;106360;1272;25381;-75
2022/08/18 06:20:25;;;;;;;19.50;16.50;;;;;;;23.32;69.31;100173.11;106456;1271;25233;-76
2022/08/18 06:23:16;;;;;;;21.70;16.60;;;;;;;23.37;69.12;100168.86;106534;1271;22541;-77
2022/08/18 06:26:06;;;;;;;22.40;16.50;;;;;;;23.42;69.24;100172.48;106432;1271;25515;-75
2022/08/18 06:28:47;;;;;;;20.50;16.50;;;;;;;23.46;69.02;100174.41;106398;1271;22530;-76
2022/08/18 06:31:43;;;;;;;19.80;15.80;;;;;;;23.50;69.02;100174.65;106483;1271;22649;-74
2022/08/18 06:34:39;;;;;;;16.90;15.10;;;;;;;23.57;68.70;100178.56;106152;1271;22534;-72
2022/08/18 06:37:10;;;;;;;24.50;15.60;;;;;;;23.60;68.80;100176.13;106287;1271;25358;-75
2022/08/18 06:39:46;;;;;;;18.40;14.10;;;;;;;23.68;68.49;100181.37;106400;1272;22708;-75
2022/08/18 06:42:29;;;;;;;19.50;16.00;;;;;;;23.75;68.24;100186.16;106410;1271;22533;-74
2022/08/18 06:45:02;;;;;;;20.50;15.10;;;;;;;23.80;68.08;100187.93;106364;1271;22589;-76
2022/08/18 06:47:35;;;;;;;22.10;14.00;;;;;;;23.84;67.65;100190.91;106446;1271;25351;-75
2022/08/18 06:50:35;;;;;;;14.20;12.50;;;;;;;23.85;67.53;100188.37;106327;1271;24401;-75
2022/08/18 06:53:07;;;;;;;16.40;13.40;;;;;;;23.88;67.46;100188.48;106231;1271;25295;-75
2022/08/18 06:55:53;;;;;;;15.30;13.40;;;;;;;23.89;67.11;100186.85;106312;1271;23024;-75
2022/08/18 06:58:28;;;;;;;13.40;11.40;;;;;;;23.93;66.79;100191.77;106403;1271;22532;-75
2022/08/18 07:01:00;;;;;;;15.80;12.60;;;;;;;23.96;66.82;100197.33;106446;1271;22753;-75
2022/08/18 07:03:33;;;;;;;14.40;13.00;;;;;;;24.03;66.78;100200.41;106368;1271;22833;-76
2022/08/18 07:06:17;;;;;;;13.90;12.50;;;;;;;24.10;66.48;100199.23;106117;1274;22697;-75
2022/08/18 07:08:44;;;;;;;13.50;12.30;;;;;;;24.16;66.06;100199.78;106289;1271;22585;-77
2022/08/18 07:11:31;;;;;;;19.20;13.10;;;;;;;24.20;66.04;100198.08;106351;1272;25545;-75
2022/08/18 07:14:23;;;;;;;14.10;12.70;;;;;;;24.24;66.07;100198.62;106519;1271;22540;-74
2022/08/18 07:17:04;;;;;;;12.10;10.90;;;;;;;24.28;65.74;100199.98;106372;1271;22577;-87
2022/08/18 07:19:31;;;;;;;13.60;10.20;;;;;;;24.33;65.28;100202.20;106355;1272;22529;-77
2022/08/18 07:22:13;;;;;;;13.10;10.30;;;;;;;24.34;64.91;100206.65;105915;1274;25345;-77
2022/08/18 07:24:54;;;;;;;12.60;10.70;;;;;;;24.36;64.68;100209.72;105827;1275;22557;-75
2022/08/18 07:27:45;;;;;;;14.10;10.10;;;;;;;24.38;64.36;100208.30;105944;1274;22613;-75
2022/08/18 07:30:24;;;;;;;11.00;8.90;;;;;;;24.43;64.34;100208.52;106084;1274;25240;-77
2022/08/18 07:33:00;;;;;;;13.10;8.50;;;;;;;24.48;64.24;100211.38;106016;1274;24384;-84
2022/08/18 07:35:31;;;;;;;13.10;8.40;;;;;;;24.53;63.46;100205.67;105969;1277;25333;-77
2022/08/18 07:38:17;;;;;;;12.00;9.90;;;;;;;24.58;63.43;100201.00;105863;1278;22801;-75
2022/08/18 07:41:29;;;;;;;12.80;9.50;;;;;;;24.66;63.74;100199.14;106233;1271;22715;-77
2022/08/18 07:44:05;;;;;;;11.30;10.30;;;;;;;24.74;63.55;100200.05;106397;1271;22604;-75
2022/08/18 07:47:00;;;;;;;11.30;8.20;;;;;;;24.80;63.18;100196.55;106373;1272;22645;-78
2022/08/18 07:49:32;;;;;;;12.50;8.10;;;;;;;24.88;62.56;100196.32;105974;1274;22697;-78
2022/08/18 07:52:04;;;;;;;15.90;9.70;;;;;;;24.97;62.34;100200.05;105993;1275;22612;-76
2022/08/18 07:54:56;;;;;;;14.50;9.20;;;;;;;25.05;62.53;100200.16;105986;1274;22593;-75
2022/08/18 07:57:49;;;;;;;15.50;8.60;;;;;;;25.16;62.33;100199.55;105954;1274;25513;-76
2022/08/18 08:00:21;;;;;;;11.60;7.90;;;;;;;25.23;61.69;100196.87;105948;1275;22534;-75
2022/08/18 08:03:24;;;;;;;10.30;7.50;;;;;;;25.32;61.62;100195.69;106071;1275;22900;-76
2022/08/18 08:06:20;;;;;;;9.30;8.50;;;;;;;25.41;61.39;100196.24;105994;1274;25423;-77
2022/08/18 08:09:05;;;;;;;8.10;7.00;;;;;;;25.52;60.87;100197.66;105900;1271;22690;-78
2022/08/18 08:11:36;;;;;;;14.00;9.70;;;;;;;25.62;60.98;100195.42;106230;1271;25299;-76
2022/08/18 08:14:17;;;;;;;10.30;8.40;;;;;;;25.74;60.95;100196.05;106301;1271;22524;-76
2022/08/18 08:17:12;;;;;;;11.70;8.00;;;;;;;25.86;60.61;100197.66;106307;1271;22550;-77
2022/08/18 08:19:47;;;;;;;8.90;8.00;;;;;;;25.98;60.37;100201.05;106047;1271;25232;-75
2022/08/18 08:22:38;;;;;;;12.10;8.00;;;;;;;26.13;60.36;100200.64;106358;1271;24255;-75
2022/08/18 08:25:18;;;;;;;11.70;8.20;;;;;;;26.26;60.35;100204.88;106431;1271;26483;-77
2022/08/18 08:28:35;;;;;;;8.30;7.50;;;;;;;26.38;59.63;100208.85;106404;1271;25521;-76
2022/08/18 08:31:05;;;;;;;12.10;8.50;;;;;;;26.50;59.45;100205.55;106442;1271;24257;-76
2022/08/18 08:34:20;;;;;;;11.60;8.00;;;;;;;26.63;59.31;100198.77;106264;1271;22995;-76
2022/08/18 08:36:49;;;;;;;14.60;8.20;;;;;;;26.79;58.85;100209.93;106284;1271;25339;-76
2022/08/18 08:39:27;;;;;;;8.30;7.30;;;;;;;26.91;58.64;100212.41;106391;1271;22562;-76
2022/08/18 08:41:59;;;;;;;9.10;7.30;;;;;;;27.01;57.36;100213.41;106364;1271;24305;-76
2022/08/18 08:44:59;;;;;;;7.90;7.20;;;;;;;27.04;56.27;100214.15;106264;1270;22548;-78
2022/08/18 08:47:45;;;;;;;11.80;7.30;;;;;;;27.06;55.85;100216.83;106299;1271;22550;-75
2022/08/18 08:50:17;;;;;;;8.70;6.90;;;;;;;27.13;56.06;100211.90;106306;1271;22655;-76
2022/08/18 08:53:15;;;;;;;9.10;6.40;;;;;;;27.24;56.27;100210.54;106213;1271;24212;-75
2022/08/18 08:55:50;;;;;;;11.40;6.90;;;;;;;27.39;55.68;100207.31;106066;1271;22688;-76
2022/08/18 08:58:22;;;;;;;9.60;6.80;;;;;;;27.51;55.40;100206.48;106419;1271;22496;-77
2022/08/18 09:00:51;;;;;;;9.00;7.00;;;;;;;27.63;54.77;100203.45;106393;1271;25497;-80
2022/08/18 09:03:42;;;;;;;7.80;7.10;;;;;;;27.73;54.63;100207.56;106714;1271;22545;-75
2022/08/18 09:06:33;;;;;;;8.10;7.30;;;;;;;27.88;54.30;100203.45;106904;1271;22789;-75
2022/08/18 09:09:19;;;;;;;10.50;6.80;;;;;;;27.98;53.55;100196.30;106467;1272;22996;-75
2022/08/18 09:12:10;;;;;;;8.90;6.50;;;;;;;28.08;52.91;100190.67;107114;1274;22824;-73
2022/08/18 09:14:45;;;;;;;9.60;6.40;;;;;;;28.22;53.01;100194.23;106470;1274;22685;-76
2022/08/18 09:17:57;;;;;;;7.80;6.00;;;;;;;28.32;52.86;100191.39;106150;1274;22546;-77
2022/08/18 09:20:29;;;;;;;8.70;6.20;;;;;;;28.42;52.19;100190.86;106130;1274;25245;-75
2022/08/18 09:23:16;;;;;;;9.30;7.10;;;;;;;28.53;52.05;100188.43;106003;1277;22534;-77
2022/08/18 09:25:48;;;;;;;7.10;6.20;;;;;;;28.70;51.43;100183.16;105963;1275;22662;-76
2022/08/18 09:28:27;;;;;;;8.10;7.20;;;;;;;28.84;51.24;100178.88;106066;1274;22531;-77
2022/08/18 09:31:04;;;;;;;8.10;6.40;;;;;;;28.99;50.92;100184.97;106320;1269;22528;-76
2022/08/18 09:33:39;;;;;;;13.80;6.50;;;;;;;29.00;50.57;100182.66;106256;1271;22633;-74
2022/08/18 09:36:20;;;;;;;11.50;6.90;;;;;;;29.14;50.76;100177.05;106457;1271;22640;-77
2022/08/18 09:42:30;;;;;;;8.90;6.80;;;;;;;29.41;50.45;100169.98;106251;1271;25399;-74
2022/08/18 09:45:02;;;;;;;7.90;6.10;;;;;;;29.54;49.69;100170.52;106307;1271;22544;-79
2022/08/18 09:47:29;;;;;;;9.50;6.50;;;;;;;29.62;49.03;100168.42;106218;1271;22550;-77
2022/08/18 09:50:02;;;;;;;6.80;6.00;;;;;;;29.69;49.11;100171.20;106361;1271;25235;-76
2022/08/18 09:52:49;;;;;;;7.90;6.20;;;;;;;29.80;48.42;100172.20;106190;1270;25534;-75
2022/08/18 09:55:16;;;;;;;9.10;6.10;;;;;;;29.90;48.40;100171.08;106427;1271;24254;-74
2022/08/18 09:57:45;;;;;;;8.00;5.70;;;;;;;30.04;48.13;100172.81;106384;1271;22591;-74
2022/08/18 10:00:25;;;;;;;6.60;5.60;;;;;;;30.16;47.57;100167.48;106423;1270;25239;-77
2022/08/18 10:03:22;;;;;;;9.80;6.50;;;;;;;30.30;47.53;100171.29;106394;1271;24339;-76
2022/08/18 10:06:03;;;;;;;8.10;5.80;;;;;;;30.37;46.71;100175.12;106354;1271;23944;-74
2022/08/18 10:08:39;;;;;;;8.00;5.60;;;;;;;30.48;46.72;100165.76;106359;1272;25307;-74
2022/08/18 10:11:23;;;;;;;7.40;5.80;;;;;;;30.67;46.50;100165.52;106555;1271;25322;-79
2022/08/18 10:14:34;;;;;;;6.90;5.70;;;;;;;30.77;45.85;100162.08;106453;1268;22554;-74
2022/08/18 10:17:22;;;;;;;6.50;5.60;;;;;;;30.94;45.41;100169.16;106382;1271;22548;-76
2022/08/18 10:20:02;;;;;;;7.10;5.40;;;;;;;31.03;44.99;100170.59;106411;1271;25239;-74
2022/08/18 10:22:42;;;;;;;7.20;5.20;;;;;;;31.09;44.38;100168.52;106320;1271;25293;-74
2022/08/18 10:25:13;;;;;;;7.30;5.20;;;;;;;31.11;43.74;100167.66;106405;1271;25531;-75
2022/08/18 10:27:53;;;;;;;6.80;5.50;;;;;;;31.10;43.95;100172.06;106407;1271;22694;-78
2022/08/18 10:30:35;;;;;;;8.90;5.50;;;;;;;31.18;44.17;100171.52;106618;1271;25244;-76
2022/08/18 10:33:59;;;;;;;6.70;5.20;;;;;;;31.40;44.16;100166.95;106528;1271;24236;-75
2022/08/18 10:36:45;;;;;;;7.60;5.20;;;;;;;31.60;43.92;100176.59;106176;1271;25305;-76
2022/08/18 10:39:17;;;;;;;9.40;5.50;;;;;;;31.79;43.57;100176.84;106039;1271;22525;-74
2022/08/18 10:41:55;;;;;;;6.90;5.30;;;;;;;31.80;42.82;100178.98;106325;1271;23806;-76
2022/08/18 10:44:26;;;;;;;6.90;5.00;;;;;;;31.79;42.50;100183.96;106445;1271;24360;-75
2022/08/18 10:46:59;;;;;;;6.90;5.30;;;;;;;31.82;42.32;100182.93;106227;1271;22536;-76
2022/08/18 10:49:30;;;;;;;6.40;4.90;;;;;;;31.91;42.15;100180.95;106445;1271;25316;-78
2022/08/18 10:52:18;;;;;;;6.30;5.20;;;;;;;31.93;42.01;100183.67;106397;1271;22545;-78
2022/08/18 10:55:24;;;;;;;6.20;5.00;;;;;;;32.02;42.10;100180.73;106212;1271;25390;-77
2022/08/18 10:58:30;;;;;;;5.90;5.20;;;;;;;32.27;41.77;100183.96;106358;1268;25599;-77
2022/08/18 11:01:14;;;;;;;7.00;5.00;;;;;;;32.48;41.32;100186.07;106184;1271;22550;-79
2022/08/18 11:04:19;;;;;;;5.90;4.30;;;;;;;32.63;40.98;100194.64;106465;1270;25247;-74
2022/08/18 11:07:21;;;;;;;6.20;4.50;;;;;;;32.77;40.31;100196.61;106349;1271;25239;-76
2022/08/18 11:09:51;;;;;;;6.10;4.60;;;;;;;32.86;39.83;100193.15;106454;1271;22566;-78
2022/08/18 11:13:03;;;;;;;6.90;4.10;;;;;;;32.92;38.97;100190.71;105552;1271;1288328;-78
2022/08/18 11:16:11;;;;;;;5.30;4.40;;;;;;;32.94;38.63;100190.85;106373;1271;22779;-81
2022/08/18 11:18:42;;;;;;;5.40;4.50;;;;;;;33.04;38.73;100187.79;106315;1270;25242;-82
2022/08/18 11:21:31;;;;;;;5.90;4.70;;;;;;;33.07;38.72;100185.98;106374;1271;22761;-76
2022/08/18 11:24:23;;;;;;;5.50;4.30;;;;;;;33.17;38.40;100182.08;106383;1271;25605;-76
2022/08/18 11:26:52;;;;;;;8.10;4.40;;;;;;;33.26;37.81;100184.73;106373;1271;25289;-77
2022/08/18 11:29:31;;;;;;;4.80;4.30;;;;;;;33.27;37.03;100180.61;106447;1271;24396;-76
2022/08/18 11:32:07;;;;;;;8.20;4.30;;;;;;;33.32;36.47;100182.17;106341;1271;23913;-76
2022/08/18 11:34:48;;;;;;;4.50;3.70;;;;;;;33.42;36.55;100166.88;106448;1271;25423;-80
2022/08/18 11:37:38;;;;;;;5.20;4.70;;;;;;;33.56;36.37;100160.04;106138;1271;22547;-83
2022/08/18 11:40:17;;;;;;;4.80;4.00;;;;;;;33.69;35.73;100160.38;106282;1271;25263;-76
2022/08/18 11:43:13;;;;;;;6.10;4.50;;;;;;;33.71;35.59;100156.42;106273;1271;22730;-75
2022/08/18 11:45:45;;;;;;;5.30;4.30;;;;;;;33.77;35.77;100152.50;106281;1271;22522;-75
2022/08/18 11:48:25;;;;;;;4.80;4.10;;;;;;;33.96;35.82;100150.04;106141;1271;22527;-79
2022/08/18 11:51:31;;;;;;;4.70;4.20;;;;;;;34.18;35.68;100150.90;106346;1271;25352;-76
2022/08/18 11:54:01;;;;;;;5.00;4.30;;;;;;;34.23;34.79;100145.38;106121;1271;22575;-77
2022/08/18 11:56:31;;;;;;;5.80;4.00;;;;;;;34.12;34.18;100139.85;106339;1271;22708;-76
2022/08/18 11:59:30;;;;;;;5.30;4.20;;;;;;;34.08;33.90;100137.30;106369;1269;22566;-78
2022/08/18 12:02:19;;;;;;;4.50;3.70;;;;;;;34.02;33.59;100134.45;106309;1271;24424;-75
2022/08/18 12:05:01;;;;;;;6.90;3.70;;;;;;;33.95;34.26;100131.20;106371;1271;24607;-78
2022/08/18 12:07:35;;;;;;;4.40;4.00;;;;;;;34.05;34.14;100126.70;105770;1274;25243;-79